Time;durP1;ratioP1;P1;durP2;ratioP2;P2;SDS_P1;SDS_P2;PMS_P1;PMS_P2;Temp;Humidity;BMP_temperature;BMP_pressure;BME280_temperature;BME280_humidity;BME280_pressure;Samples;Min_cycle;Max_cycle;Signal;HPM_P1;HPM_P2
2023/07/19 03:55:28;;;;;;;8.57;4.20;;;;;;;22.02;100.00;99969.94;6471072;27;20084;31
2023/07/19 03:58:33;;;;;;;8.07;3.67;;;;;;;22.08;100.00;99976.28;6538543;27;33847;-84
2023/07/19 04:01:36;;;;;;;5.25;3.90;;;;;;;22.06;100.00;99981.22;6540721;27;33468;-84
2023/07/19 04:04:39;;;;;;;6.57;3.70;;;;;;;22.07;100.00;99989.19;6505572;27;33244;-83
2023/07/19 04:07:42;;;;;;;6.68;3.83;;;;;;;22.10;100.00;99999.63;6523278;27;33560;-84
2023/07/19 04:10:46;;;;;;;10.30;4.43;;;;;;;22.08;100.00;99998.22;6522777;27;33569;-84
2023/07/19 04:13:50;;;;;;;5.75;3.97;;;;;;;22.08;100.00;100009.19;6524758;27;33916;-84
2023/07/19 04:16:53;;;;;;;7.43;4.70;;;;;;;22.11;98.29;100005.91;6532666;27;34240;-84
2023/07/19 04:19:56;;;;;;;10.27;4.20;;;;;;;22.26;97.05;100010.72;6529328;27;33610;-83
2023/07/19 04:22:59;;;;;;;7.95;4.57;;;;;;;22.30;96.85;100014.59;6522822;27;33934;-83
2023/07/19 04:26:05;;;;;;;5.87;4.65;;;;;;;22.45;96.41;100006.47;6504907;27;34249;-84
2023/07/19 04:29:08;;;;;;;5.12;4.10;;;;;;;22.47;96.49;100001.53;6524299;27;33136;-83
2023/07/19 04:32:11;;;;;;;5.82;4.57;;;;;;;22.56;95.16;100010.09;6524494;27;33832;-84
2023/07/19 04:35:14;;;;;;;9.57;4.57;;;;;;;22.59;96.10;100010.37;6523101;27;33402;-83
2023/07/19 04:38:17;;;;;;;7.25;4.35;;;;;;;22.66;93.67;100017.53;6524176;27;33223;-83
2023/07/19 04:41:21;;;;;;;6.35;4.28;;;;;;;22.73;93.10;100005.25;6524066;27;33586;-83
2023/07/19 04:44:24;;;;;;;6.95;4.43;;;;;;;22.76;93.19;100006.63;6487242;27;34192;-83
2023/07/19 04:47:28;;;;;;;8.27;4.10;;;;;;;22.77;93.34;100000.03;6504668;27;34080;-83
2023/07/19 04:50:31;;;;;;;8.85;4.22;;;;;;;22.78;92.70;99994.25;6523378;27;33936;-84
2023/07/19 04:53:34;;;;;;;6.32;4.35;;;;;;;22.90;91.51;99994.03;6504896;27;33279;-82
2023/07/19 04:56:39;;;;;;;8.45;3.97;;;;;;;23.03;91.31;100001.81;6526157;27;33343;-83
2023/07/19 04:59:42;;;;;;;8.00;4.70;;;;;;;23.28;89.17;100005.72;6531634;27;33296;-83
2023/07/19 05:02:45;;;;;;;8.45;3.97;;;;;;;23.30;88.00;100012.59;6532113;27;34076;-83
2023/07/19 05:05:48;;;;;;;7.75;4.10;;;;;;;23.35;87.90;100008.22;6550838;27;34182;-83
2023/07/19 05:08:51;;;;;;;7.90;4.05;;;;;;;23.30;88.47;100000.78;6513900;27;32843;-83
2023/07/19 05:11:55;;;;;;;6.47;4.30;;;;;;;23.13;89.09;100000.19;6531683;27;34236;-83
2023/07/19 05:14:57;;;;;;;7.50;4.00;;;;;;;23.03;90.52;99995.50;6531649;27;34619;-83
2023/07/19 05:18:00;;;;;;;5.80;4.10;;;;;;;23.04;90.20;100002.63;6551287;27;34350;-83
2023/07/19 05:21:03;;;;;;;6.40;4.00;;;;;;;23.05;89.91;100002.38;6532031;27;32997;-83
2023/07/19 05:24:06;;;;;;;7.68;4.00;;;;;;;23.26;88.57;100007.94;6550918;27;34056;-83
2023/07/19 05:27:15;;;;;;;6.15;3.87;;;;;;;23.48;86.51;100010.44;6532005;27;33358;-83
2023/07/19 05:30:18;;;;;;;5.03;3.97;;;;;;;23.67;85.11;100008.81;6532536;27;33074;-83
2023/07/19 05:33:21;;;;;;;8.75;4.37;;;;;;;23.92;82.58;100007.19;6532077;27;33082;-87
2023/07/19 05:36:24;;;;;;;4.00;3.15;;;;;;;24.26;80.01;99999.19;6531331;27;33467;-87
2023/07/19 05:39:26;;;;;;;5.78;3.83;;;;;;;24.57;76.56;99997.22;6550828;27;33262;-87
2023/07/19 05:42:29;;;;;;;6.47;3.55;;;;;;;24.76;73.81;99991.09;6550357;27;33927;-87
2023/07/19 05:45:32;;;;;;;6.82;3.62;;;;;;;24.97;72.08;100002.84;6513500;27;33789;-83
2023/07/19 05:48:36;;;;;;;6.15;3.40;;;;;;;25.06;71.21;100012.97;6531302;27;33514;-83
2023/07/19 05:51:39;;;;;;;3.70;3.25;;;;;;;24.92;71.14;100020.22;6551047;27;33449;-83
2023/07/19 05:54:42;;;;;;;11.30;3.78;;;;;;;24.92;72.04;100028.47;6531930;27;34529;-83
2023/07/19 05:57:45;;;;;;;9.00;4.15;;;;;;;24.93;70.93;100026.56;6531412;27;34152;-83
2023/07/19 06:00:48;;;;;;;7.57;3.42;;;;;;;24.79;71.71;100020.81;6549144;27;34222;-83
2023/07/19 06:03:51;;;;;;;5.15;3.20;;;;;;;24.80;72.18;100020.53;6554564;27;33721;-83
2023/07/19 06:06:54;;;;;;;8.25;3.50;;;;;;;24.63;72.45;100036.59;6524886;27;34380;-83
2023/07/19 06:09:57;;;;;;;7.30;3.12;;;;;;;24.62;72.67;100029.41;6517553;27;34449;-83
2023/07/19 06:12:59;;;;;;;5.57;3.25;;;;;;;24.90;72.38;100030.69;6513818;27;33985;-83
2023/07/19 06:16:02;;;;;;;8.90;3.60;;;;;;;25.14;70.79;100033.66;6525813;27;156804;-83
2023/07/19 06:19:05;;;;;;;5.87;3.08;;;;;;;25.50;69.21;100030.69;6550924;27;33742;-83
2023/07/19 06:22:08;;;;;;;3.92;3.20;;;;;;;25.95;65.85;100026.81;6516756;27;34851;-83
2023/07/19 06:25:11;;;;;;;4.82;3.08;;;;;;;26.15;65.75;100027.72;6514054;27;33448;-84
2023/07/19 06:28:14;;;;;;;4.78;3.62;;;;;;;26.14;64.16;100015.88;6514453;27;34075;-84
2023/07/19 06:31:17;;;;;;;5.37;3.47;;;;;;;25.86;66.40;100019.41;6551182;27;33255;-83
2023/07/19 06:34:24;;;;;;;8.43;3.65;;;;;;;25.86;68.35;100008.38;6532168;27;33460;-84
2023/07/19 06:37:26;;;;;;;5.07;3.42;;;;;;;25.79;67.77;100009.50;6551148;27;33606;-84
2023/07/19 06:40:29;;;;;;;4.10;3.10;;;;;;;25.85;69.04;100017.78;6531386;27;33355;-84
2023/07/19 06:43:32;;;;;;;7.05;3.50;;;;;;;26.09;66.69;100020.59;6531308;27;33432;-84
2023/07/19 06:46:35;;;;;;;4.85;3.00;;;;;;;26.41;64.75;100014.50;6557794;27;33123;-84
2023/07/19 06:49:38;;;;;;;5.60;3.45;;;;;;;26.35;65.59;100013.72;6550668;27;33834;-83
2023/07/19 06:52:41;;;;;;;5.68;2.95;;;;;;;26.30;66.51;100013.81;6522187;27;33749;-84
2023/07/19 06:55:44;;;;;;;9.85;3.20;;;;;;;26.28;65.04;100017.97;6552133;27;34663;-84
2023/07/19 06:58:47;;;;;;;6.60;3.25;;;;;;;26.49;66.39;100005.56;6541468;27;34924;-84
2023/07/19 07:01:50;;;;;;;7.05;3.30;;;;;;;26.54;67.23;100000.03;6513406;27;35230;-84
2023/07/19 07:04:54;;;;;;;5.32;3.75;;;;;;;26.62;65.65;99990.31;6513775;27;33339;-84
2023/07/19 07:07:57;;;;;;;4.72;3.40;;;;;;;26.72;65.00;99992.94;6531539;27;33830;-84
2023/07/19 07:11:01;;;;;;;7.95;3.65;;;;;;;26.79;65.59;99993.37;6531309;27;34127;-84
2023/07/19 07:14:04;;;;;;;5.10;3.28;;;;;;;26.84;65.36;99990.56;6551773;27;33144;-84
2023/07/19 07:17:07;;;;;;;7.35;3.58;;;;;;;26.84;63.64;99989.75;6532883;27;34098;-84
2023/07/19 07:20:10;;;;;;;6.78;3.28;;;;;;;26.88;63.37;99991.63;6533865;27;33441;-84
2023/07/19 07:23:13;;;;;;;4.68;3.30;;;;;;;27.12;62.82;99988.00;6532947;27;33571;-84
2023/07/19 07:26:16;;;;;;;3.90;3.45;;;;;;;27.35;61.94;99978.84;6532679;27;33081;-84
2023/07/19 07:29:19;;;;;;;6.40;3.30;;;;;;;27.49;64.05;99983.59;6532506;27;33255;-84
2023/07/19 07:32:22;;;;;;;6.90;3.28;;;;;;;27.59;62.43;99987.03;6514948;27;33094;-84
2023/07/19 07:35:25;;;;;;;5.72;3.37;;;;;;;27.44;63.15;99984.53;6514518;27;34108;-84
2023/07/19 07:38:28;;;;;;;9.00;3.30;;;;;;;27.53;63.17;99998.50;6531846;27;33179;-84
2023/07/19 07:41:32;;;;;;;5.37;3.30;;;;;;;27.76;61.63;100007.81;6532064;27;33061;-84
2023/07/19 07:44:34;;;;;;;6.53;3.87;;;;;;;27.64;60.57;100002.72;6550887;27;33389;-84
2023/07/19 07:47:38;;;;;;;6.12;3.03;;;;;;;27.73;61.84;99995.41;6531667;27;33387;-84
2023/07/19 07:50:40;;;;;;;6.28;3.17;;;;;;;27.78;62.01;99995.31;6551214;27;33524;-84
2023/07/19 07:53:44;;;;;;;8.10;3.83;;;;;;;27.88;60.31;99993.53;6514507;27;34637;-84
2023/07/19 07:56:46;;;;;;;6.82;3.47;;;;;;;28.17;59.87;99987.75;6514027;27;33582;-84
2023/07/19 07:59:49;;;;;;;10.20;3.78;;;;;;;28.42;62.13;99997.56;6514156;27;33524;-88
2023/07/19 08:02:52;;;;;;;6.25;3.70;;;;;;;28.63;59.81;99996.03;6532996;27;33193;-88
2023/07/19 08:05:55;;;;;;;5.72;3.42;;;;;;;28.71;59.02;99989.75;6514550;27;32979;-88
2023/07/19 08:08:58;;;;;;;6.32;3.60;;;;;;;28.62;57.79;99997.16;6514687;27;34522;-88
2023/07/19 08:12:01;;;;;;;3.83;3.40;;;;;;;28.70;58.48;99998.41;6532158;27;33448;-84
2023/07/19 08:15:05;;;;;;;7.30;3.62;;;;;;;28.85;56.94;99991.72;6514902;27;33915;-84
2023/07/19 08:18:07;;;;;;;6.20;4.00;;;;;;;28.82;57.20;99987.63;6531898;27;33484;-84
2023/07/19 08:21:10;;;;;;;8.60;3.70;;;;;;;28.90;56.96;99984.13;6544236;27;34331;-84
2023/07/19 08:24:31;;;;;;;7.43;3.58;;;;;;;28.70;57.19;99971.50;6540766;27;34860;-84
2023/07/19 08:27:34;;;;;;;6.68;3.37;;;;;;;28.64;59.24;99969.16;6514451;27;33008;-84
2023/07/19 08:30:38;;;;;;;5.10;3.80;;;;;;;28.66;58.37;99966.88;6514036;27;33193;-84
2023/07/19 08:33:40;;;;;;;5.05;3.35;;;;;;;28.62;58.56;99966.69;6532284;27;33897;-84
2023/07/19 08:36:43;;;;;;;9.10;3.92;;;;;;;28.87;59.32;99970.87;6514745;27;33379;-84
2023/07/19 08:39:46;;;;;;;10.45;3.78;;;;;;;28.86;59.96;99966.47;6532567;27;33378;-84
2023/07/19 08:42:49;;;;;;;14.00;3.58;;;;;;;28.76;59.59;99972.22;6514896;27;34260;-84
2023/07/19 08:45:52;;;;;;;10.52;4.10;;;;;;;28.77;59.50;99970.28;6551691;27;33003;-84
2023/07/19 08:48:56;;;;;;;4.50;3.53;;;;;;;28.82;59.50;99978.50;6550054;27;34071;-84
2023/07/19 08:52:02;;;;;;;7.68;3.53;;;;;;;28.55;59.65;99980.16;6531951;27;34202;-84
2023/07/19 08:55:06;;;;;;;12.10;3.20;;;;;;;28.69;59.02;99986.50;6560081;27;34211;-84
2023/07/19 08:58:09;;;;;;;8.18;3.58;;;;;;;29.12;57.56;99988.13;6557827;27;33435;-84
2023/07/19 09:01:14;;;;;;;8.40;3.62;;;;;;;29.30;59.75;99984.34;6550824;27;33891;-84
2023/07/19 09:04:17;;;;;;;5.82;3.70;;;;;;;29.25;57.81;99983.66;6549375;27;32981;-84
2023/07/19 09:07:19;;;;;;;6.97;3.28;;;;;;;29.48;56.88;99985.31;6531856;27;33310;-84
2023/07/19 09:10:25;;;;;;;5.95;3.30;;;;;;;29.69;56.26;99991.25;6514111;27;33433;-84
2023/07/19 09:13:33;;;;;;;7.53;3.83;;;;;;;29.53;56.16;99987.97;6531792;27;34057;-84
2023/07/19 09:16:40;;;;;;;6.87;3.70;;;;;;;29.55;56.73;99985.72;6551510;27;33380;-84
2023/07/19 09:19:44;;;;;;;9.38;4.03;;;;;;;29.89;56.32;99992.69;6531945;27;33037;-84
2023/07/19 09:22:47;;;;;;;9.40;3.55;;;;;;;30.06;54.33;99986.41;6550637;27;33512;-84
2023/07/19 09:25:52;;;;;;;7.57;3.80;;;;;;;29.93;56.03;99987.34;6531442;27;33445;-84
2023/07/19 09:28:55;;;;;;;7.62;3.58;;;;;;;29.74;56.35;99998.63;6550722;27;33003;-84
2023/07/19 09:32:00;;;;;;;7.70;4.05;;;;;;;29.88;57.12;100001.34;6551190;27;33073;-84
2023/07/19 09:35:05;;;;;;;5.78;3.67;;;;;;;29.40;58.64;99991.66;6550820;27;34170;-84
2023/07/19 09:38:08;;;;;;;8.80;3.92;;;;;;;29.91;57.27;99992.38;6514085;27;33602;-84
2023/07/19 09:41:12;;;;;;;7.68;3.53;;;;;;;29.88;56.21;99977.16;6513871;27;33394;-84
2023/07/19 09:44:15;;;;;;;4.80;3.30;;;;;;;29.86;56.85;99967.50;6550957;27;33383;-84
2023/07/19 09:47:19;;;;;;;6.78;3.70;;;;;;;30.03;57.23;99964.84;6531519;27;34160;-84
2023/07/19 09:50:32;;;;;;;6.45;3.60;;;;;;;30.08;56.34;99963.91;6516700;27;33250;-88
2023/07/19 09:53:37;;;;;;;12.13;3.75;;;;;;;29.75;57.19;99972.53;6531306;27;33641;-88
2023/07/19 09:56:42;;;;;;;7.93;3.22;;;;;;;29.89;57.80;99975.22;6547564;27;33359;-85
2023/07/19 09:59:48;;;;;;;6.45;3.78;;;;;;;29.90;56.66;99972.13;6564317;27;33931;-84
2023/07/19 10:02:51;;;;;;;5.93;3.70;;;;;;;30.07;56.39;99979.75;6552098;27;34163;-84
2023/07/19 10:05:55;;;;;;;5.43;3.10;;;;;;;30.34;56.18;99967.66;6530968;27;33341;-84
2023/07/19 10:09:24;;;;;;;6.10;3.40;;;;;;;30.28;55.76;99960.59;6550227;27;33259;-84
2023/07/19 10:12:28;;;;;;;9.07;3.85;;;;;;;31.07;53.34;99956.13;6542140;27;33430;-84
2023/07/19 10:15:30;;;;;;;4.57;3.35;;;;;;;31.49;51.60;99957.28;6550590;27;33796;-84
2023/07/19 10:18:33;;;;;;;7.78;3.65;;;;;;;31.39;51.59;99950.09;6550791;27;33384;-84
2023/07/19 10:21:36;;;;;;;6.22;3.47;;;;;;;31.81;50.36;99944.81;6555614;27;33265;-84
2023/07/19 10:25:03;;;;;;;5.37;3.53;;;;;;;32.18;48.19;99928.50;6565509;27;33803;-84
2023/07/19 10:28:11;;;;;;;6.53;3.85;;;;;;;31.92;47.72;99922.22;6555045;27;34073;-84
2023/07/19 10:31:14;;;;;;;6.25;3.37;;;;;;;32.00;48.48;99927.75;6550600;27;33433;-84
2023/07/19 10:34:30;;;;;;;8.95;3.87;;;;;;;31.81;47.52;99919.75;6517964;27;33401;-84
2023/07/19 10:37:52;;;;;;;5.55;3.58;;;;;;;32.42;47.80;99924.31;6518391;27;33362;-84
2023/07/19 10:41:00;;;;;;;5.82;3.20;;;;;;;32.73;45.81;99915.63;6530945;27;33439;-84
2023/07/19 10:44:03;;;;;;;5.65;3.40;;;;;;;32.77;44.64;99915.78;6548742;27;33222;-84
2023/07/19 10:47:08;;;;;;;11.80;3.33;;;;;;;33.25;43.51;99901.31;6531357;27;33426;-84
2023/07/19 10:50:11;;;;;;;6.57;3.30;;;;;;;33.21;43.06;99896.75;6550752;27;33288;-88
2023/07/19 10:53:14;;;;;;;7.40;3.35;;;;;;;33.00;43.54;99896.78;6531524;27;33230;-88
2023/07/19 10:56:18;;;;;;;5.87;3.33;;;;;;;32.83;43.23;99887.34;6531847;27;33785;-84
2023/07/19 10:59:22;;;;;;;10.00;3.22;;;;;;;32.80;43.25;99876.06;6532283;27;34509;-84
2023/07/19 11:02:25;;;;;;;4.32;3.10;;;;;;;32.93;42.50;99875.78;6513625;27;33040;-84
2023/07/19 11:05:28;;;;;;;6.00;3.10;;;;;;;33.14;42.45;99872.19;6531889;27;33715;-84
2023/07/19 11:08:32;;;;;;;15.05;3.75;;;;;;;33.57;39.98;99877.38;6532285;27;33997;-84
2023/07/19 11:11:36;;;;;;;6.85;3.50;;;;;;;33.90;39.47;99886.87;6514277;27;33608;-84
2023/07/19 11:14:43;;;;;;;7.85;3.17;;;;;;;34.45;37.93;99891.12;6551510;27;34112;-84
2023/07/19 11:17:45;;;;;;;5.37;3.00;;;;;;;34.66;37.00;99877.03;6514255;27;33622;-84
2023/07/19 11:20:48;;;;;;;8.25;3.42;;;;;;;34.72;37.27;99886.81;6514983;27;33409;-84
2023/07/19 11:23:52;;;;;;;6.50;3.47;;;;;;;34.98;36.53;99884.44;6533228;27;34309;-84
2023/07/19 11:26:55;;;;;;;7.28;3.15;;;;;;;35.64;36.53;99877.53;6552230;27;34209;-84
2023/07/19 11:29:59;;;;;;;6.30;3.05;;;;;;;35.74;35.27;99866.97;6532754;27;33355;-84
2023/07/19 11:33:07;;;;;;;4.10;3.03;;;;;;;35.87;35.22;99871.34;6551742;27;33476;-84
2023/07/19 11:36:10;;;;;;;6.65;3.05;;;;;;;36.85;33.16;99875.28;6551155;27;34124;-84
2023/07/19 11:39:18;;;;;;;7.72;2.80;;;;;;;37.19;32.20;99865.22;6514508;27;33076;-84
2023/07/19 11:42:43;;;;;;;3.87;2.95;;;;;;;37.87;31.99;99869.31;6531781;27;34149;-84
2023/07/19 11:45:46;;;;;;;4.85;2.72;;;;;;;38.65;29.75;99866.19;6558261;27;33835;-84
2023/07/19 11:48:52;;;;;;;3.90;2.75;;;;;;;39.44;28.40;99866.03;6562335;27;33267;-84
2023/07/19 11:51:56;;;;;;;7.62;3.22;;;;;;;38.50;28.87;99853.94;6532412;27;34207;-84
2023/07/19 11:54:59;;;;;;;9.18;3.28;;;;;;;38.44;29.61;99858.25;6514213;27;33331;-85
2023/07/19 11:58:05;;;;;;;6.43;3.15;;;;;;;39.25;28.77;99860.53;6549375;27;33454;-84
2023/07/19 12:01:07;;;;;;;4.45;3.10;;;;;;;39.07;28.87;99853.91;6532527;27;33479;-84
2023/07/19 12:04:10;;;;;;;4.18;2.55;;;;;;;38.13;30.37;99851.72;6549868;27;33437;-84
2023/07/19 12:07:13;;;;;;;5.18;2.78;;;;;;;38.50;28.95;99839.88;6550961;27;34549;-84
2023/07/19 12:10:18;;;;;;;6.35;2.72;;;;;;;38.49;29.17;99836.22;6551178;27;33459;-85
2023/07/19 12:13:22;;;;;;;7.65;3.17;;;;;;;39.22;28.00;99833.16;6531787;27;33113;-84
2023/07/19 12:16:25;;;;;;;4.20;2.60;;;;;;;40.21;26.83;99832.53;6531859;27;33481;-85
2023/07/19 12:19:28;;;;;;;7.85;2.97;;;;;;;39.42;27.01;99822.53;6532186;27;33005;-84
2023/07/19 12:22:33;;;;;;;6.07;2.75;;;;;;;40.64;24.63;99815.88;6549865;27;33428;-85
2023/07/19 12:25:36;;;;;;;5.32;2.42;;;;;;;42.60;22.93;99808.88;6518456;27;33465;-85
2023/07/19 12:28:39;;;;;;;3.47;2.10;;;;;;;44.38;20.15;99811.75;6524478;27;33357;-84
2023/07/19 12:31:41;;;;;;;4.18;2.15;;;;;;;44.47;18.78;99803.53;6533433;27;33459;-84
2023/07/19 12:34:45;;;;;;;2.95;2.20;;;;;;;44.56;18.60;99794.50;6551027;27;33290;-84
2023/07/19 12:37:48;;;;;;;5.37;2.17;;;;;;;45.21;18.93;99791.66;6551229;27;33052;-89
2023/07/19 12:40:51;;;;;;;2.30;1.95;;;;;;;45.22;18.96;99774.16;6551074;27;33467;-89
2023/07/19 12:43:53;;;;;;;3.53;2.15;;;;;;;45.89;18.02;99762.16;6551396;27;34460;-89
2023/07/19 12:46:56;;;;;;;5.22;2.50;;;;;;;46.91;18.45;99765.41;6531526;27;33303;-89
2023/07/19 12:49:59;;;;;;;3.30;2.28;;;;;;;47.07;17.04;99753.25;6531980;27;33135;-86
2023/07/19 12:53:02;;;;;;;6.95;2.47;;;;;;;47.08;17.42;99740.63;6550980;27;34715;-85
2023/07/19 12:56:06;;;;;;;8.27;2.37;;;;;;;47.83;16.45;99739.59;6517919;27;33417;-85
2023/07/19 12:59:10;;;;;;;8.63;2.75;;;;;;;47.33;16.64;99740.81;6570722;27;35182;-86
2023/07/19 13:02:12;;;;;;;3.70;2.25;;;;;;;47.84;16.30;99740.38;6541293;27;34801;-85
2023/07/19 13:05:15;;;;;;;4.87;2.33;;;;;;;47.91;16.42;99738.12;6514932;27;34556;-85
2023/07/19 13:08:18;;;;;;;2.40;2.20;;;;;;;48.07;16.22;99731.59;6532205;27;33159;-85
2023/07/19 13:11:21;;;;;;;3.67;2.30;;;;;;;47.56;15.23;99741.91;6531950;27;33437;-85
2023/07/19 13:14:24;;;;;;;3.62;1.80;;;;;;;48.17;14.42;99732.56;6531872;27;33469;-85
2023/07/19 13:17:27;;;;;;;2.42;1.70;;;;;;;47.45;15.00;99730.78;6531836;27;33103;-85
2023/07/19 13:20:30;;;;;;;7.68;2.08;;;;;;;46.19;15.50;99717.66;6531309;27;33037;-85
2023/07/19 13:23:33;;;;;;;3.58;2.20;;;;;;;46.39;15.21;99709.16;6531057;27;33291;-85
2023/07/19 13:26:36;;;;;;;3.00;1.90;;;;;;;47.19;14.38;99706.97;6531349;27;33453;-85
2023/07/19 13:29:39;;;;;;;4.10;2.12;;;;;;;47.76;13.97;99704.69;6550751;27;34254;-85
2023/07/19 13:32:41;;;;;;;6.68;1.85;;;;;;;48.24;14.02;99691.56;6551098;27;33319;-85
2023/07/19 13:35:44;;;;;;;4.40;1.75;;;;;;;48.91;14.10;99690.78;6513175;27;33025;-85
2023/07/19 13:38:50;;;;;;;3.05;1.95;;;;;;;49.48;13.79;99674.59;6550319;27;33448;-85
2023/07/19 13:41:53;;;;;;;10.85;2.47;;;;;;;49.55;13.50;99680.03;6531428;27;33426;-85
2023/07/19 13:44:55;;;;;;;5.57;2.17;;;;;;;49.19;13.33;99661.25;6531758;27;34184;-85
2023/07/19 13:47:58;;;;;;;4.12;1.80;;;;;;;48.50;14.11;99656.13;6550095;27;34210;-85
2023/07/19 13:51:03;;;;;;;2.05;1.85;;;;;;;48.23;14.15;99655.69;6513005;27;33487;-85
2023/07/19 13:54:05;;;;;;;4.00;3.00;;;;;;;48.84;14.25;99634.63;6513778;27;33024;-85
2023/07/19 13:57:08;;;;;;;5.07;2.30;;;;;;;48.09;14.67;99622.63;6512622;27;33490;-85
2023/07/19 14:00:12;;;;;;;4.30;2.00;;;;;;;48.35;14.69;99617.78;6531622;27;34390;-84
2023/07/19 14:03:16;;;;;;;3.12;1.90;;;;;;;48.44;13.64;99620.75;6531939;27;33359;-84
2023/07/19 14:06:18;;;;;;;5.30;2.25;;;;;;;48.03;13.76;99621.59;6533337;27;34451;-85
2023/07/19 14:09:25;;;;;;;4.40;2.30;;;;;;;47.03;14.91;99640.16;6516144;27;33343;-84
2023/07/19 14:12:28;;;;;;;4.75;2.08;;;;;;;46.28;15.66;99649.59;6531827;27;33077;-84
2023/07/19 14:15:34;;;;;;;5.75;2.17;;;;;;;44.73;17.08;99648.69;6531971;27;33401;-84
2023/07/19 14:18:37;;;;;;;3.85;2.25;;;;;;;42.86;18.57;99620.66;6531601;27;33614;-84
2023/07/19 14:21:40;;;;;;;4.40;2.50;;;;;;;42.56;18.55;99624.06;6550316;27;34108;-84
2023/07/19 14:24:43;;;;;;;6.03;2.28;;;;;;;41.55;20.00;99631.31;6532264;27;33895;-84
2023/07/19 14:27:47;;;;;;;5.05;1.98;;;;;;;40.23;21.83;99637.53;6516025;27;33487;-84
2023/07/19 14:30:49;;;;;;;2.62;2.08;;;;;;;38.83;22.98;99621.59;6547897;27;33724;-84
2023/07/19 14:33:54;;;;;;;3.75;2.03;;;;;;;37.90;23.37;99615.66;6523210;27;36225;-84
2023/07/19 14:36:57;;;;;;;7.93;2.45;;;;;;;37.12;25.00;99640.50;6537071;27;33488;-83
2023/07/19 14:40:00;;;;;;;5.10;2.45;;;;;;;36.37;25.54;99667.13;6560179;27;33613;-83
2023/07/19 14:43:03;;;;;;;3.85;2.75;;;;;;;36.04;25.88;99669.25;6514044;27;34371;-83
2023/07/19 14:46:06;;;;;;;3.22;2.40;;;;;;;35.60;26.86;99658.22;6531335;27;34207;-83
2023/07/19 14:49:09;;;;;;;7.65;2.30;;;;;;;35.54;26.59;99667.22;6513862;27;34074;-83
2023/07/19 14:52:12;;;;;;;2.92;2.40;;;;;;;35.25;27.12;99660.94;6550847;27;32916;-83
2023/07/19 14:55:15;;;;;;;2.87;2.37;;;;;;;35.05;27.31;99678.81;6551030;27;33434;-83
2023/07/19 14:58:18;;;;;;;4.80;2.45;;;;;;;34.56;28.17;99687.41;6513478;27;32940;-88
2023/07/19 15:01:21;;;;;;;3.92;2.60;;;;;;;34.38;28.30;99684.09;6550866;27;33266;-84
2023/07/19 15:04:25;;;;;;;3.87;2.62;;;;;;;34.18;28.58;99683.09;6531554;27;34140;-84
2023/07/19 15:07:28;;;;;;;5.03;2.50;;;;;;;34.16;28.83;99674.25;6513652;27;32891;-84
2023/07/19 15:10:31;;;;;;;4.95;2.60;;;;;;;34.03;29.46;99677.06;6495991;27;33772;-85
2023/07/19 15:13:34;;;;;;;2.97;2.33;;;;;;;34.15;29.77;99675.41;6550908;27;33270;-85
2023/07/19 15:16:37;;;;;;;4.70;2.67;;;;;;;33.83;29.77;99676.03;6552184;27;32979;-84
2023/07/19 15:19:39;;;;;;;4.05;2.33;;;;;;;33.86;29.94;99663.34;6532022;27;33330;-84
2023/07/19 15:22:42;;;;;;;6.50;2.60;;;;;;;33.75;30.19;99665.00;6513861;27;33338;-84
2023/07/19 15:25:45;;;;;;;3.50;2.72;;;;;;;33.76;30.47;99670.22;6531597;27;33144;-85
2023/07/19 15:28:49;;;;;;;4.72;2.90;;;;;;;33.47;30.89;99670.47;6531459;27;33274;-85
2023/07/19 15:31:54;;;;;;;5.05;2.80;;;;;;;33.56;31.44;99673.97;6513310;27;33553;-85
2023/07/19 15:34:57;;;;;;;5.45;2.67;;;;;;;32.93;31.76;99663.84;6533075;27;33689;-85
2023/07/19 15:38:00;;;;;;;3.78;2.95;;;;;;;32.79;32.39;99666.16;6552354;27;33255;-85
2023/07/19 15:41:03;;;;;;;6.37;3.03;;;;;;;32.77;32.50;99674.03;6532999;27;33332;-83
2023/07/19 15:44:06;;;;;;;8.55;3.22;;;;;;;32.74;32.82;99678.31;6551881;27;34214;-84
2023/07/19 15:47:29;;;;;;;3.90;2.65;;;;;;;32.66;33.42;99670.84;6521795;27;33158;-84
2023/07/19 15:50:35;;;;;;;4.45;2.70;;;;;;;32.62;33.65;99669.12;6552015;27;33403;-84
2023/07/19 15:53:38;;;;;;;6.05;2.87;;;;;;;32.43;33.62;99670.38;6551875;27;32968;-84
2023/07/19 15:56:40;;;;;;;5.00;3.03;;;;;;;32.42;33.69;99662.38;6532790;27;33828;-84
